Date,TemperatureHighF,TemperatureAvgF,TemperatureLowF,DewpointHighF,DewpointAvgF,DewpointLowF,HumidityHigh,HumidityAvg,HumidityLow,PressureMaxIn,PressureMinIn,WindSpeedMaxMPH,WindSpeedAvgMPH,GustSpeedMaxMPH,PrecipitationSumIn
2013-1-1,56,54,52,52,49,46,95,84,76,30.18,29.97,6,1,10,0.01
2013-1-2,54,50,43,53,48,41,97,93,85,30.22,29.90,8,1,13,0.12
2013-1-3,43,41,33,42,39,32,96,91,84,30.28,30.15,6,1,9,0.08
2013-1-4,55,40,28,38,32,27,98,77,40,30.34,30.22,7,1,12,0.01
2013-1-5,53,39,26,35,31,24,97,75,38,30.41,30.30,6,1,10,0.01
2013-1-6,50,46,38,46,42,36,95,86,71,30.31,30.08,4,0,7,0.01
2013-1-7,56,46,34,44,38,33,97,77,46,30.44,30.16,11,2,21,0.00
2013-1-8,62,46,34,53,42,32,96,86,69,30.45,30.36,9,1,12,0.00
2013-1-9,70,57,44,58,52,43,98,85,63,30.43,30.36,7,1,10,0.00
2013-1-10,67,57,50,55,48,39,98,76,54,30.50,30.42,14,3,23,0.00
2013-1-11,72,60,47,68,58,42,97,90,78,30.44,30.17,7,2,12,0.18
2013-1-12,80,68,60,66,62,59,98,84,55,30.18,30.07,7,1,13,0.01
2013-1-13,78,65,55,65,60,54,98,86,62,30.15,30.06,8,1,12,0.00
2013-1-14,67,63,61,62,60,59,96,92,82,30.17,30.08,6,2,9,0.01
2013-1-15,77,61,55,67,58,54,99,91,65,30.15,30.04,7,2,12,0.00
2013-1-16,78,67,58,67,62,56,99,86,63,30.04,29.92,14,3,22,0.01
2013-1-17,78,62,42,65,58,41,98,88,58,29.97,29.74,14,4,21,1.04
2013-1-18,52,42,32,41,34,29,95,77,43,30.53,29.95,12,3,22,0.01
2013-1-19,64,44,30,45,35,27,96,76,43,30.52,30.22,6,1,10,0.01
2013-1-20,69,51,39,48,40,35,98,72,30,30.22,30.01,9,2,16,0.00
2013-1-21,65,50,33,48,40,32,98,72,43,30.09,29.92,9,2,15,0.00
2013-1-22,50,42,27,36,22,15,77,48,26,30.28,29.98,9,2,14,0.00
2013-1-23,47,33,24,26,16,7,81,51,24,30.41,30.16,7,0,10,0.00
2013-1-24,51,40,25,41,25,9,88,57,36,30.54,30.02,12,4,20,0.00
2013-1-25,38,30,20,33,23,11,94,75,54,30.54,30.14,8,1,13,0.07
2013-1-26,50,38,28,38,32,26,93,80,60,30.40,30.15,7,1,12,0.00
2013-1-27,46,34,26,31,28,24,95,79,50,30.58,30.40,11,2,17,0.01
2013-1-28,59,45,30,51,40,26,97,84,72,30.53,30.29,5,1,8,0.00
2013-1-29,78,61,50,63,56,49,98,85,54,30.29,30.14,8,2,12,0.01
2013-1-30,76,68,56,65,63,55,98,84,68,30.16,29.60,18,8,32,0.00
2013-1-31,71,53,44,67,38,26,93,59,32,30.11,29.53,20,7,40,0.15
2013-2-1,56,44,25,33,22,3,76,45,15,30.40,30.05,16,4,27,0.00
2013-2-2,49,36,20,42,26,14,87,69,48,30.44,30.07,8,1,13,0.00
2013-2-3,57,45,33,42,34,28,93,70,34,30.07,29.88,13,2,20,0.00
2013-2-4,51,39,26,36,30,24,95,72,39,30.18,30.01,6,1,8,0.00
2013-2-5,68,52,36,48,41,34,95,68,30,30.08,29.92,11,2,17,0.00
2013-2-6,69,53,42,51,44,40,97,75,34,30.26,30.01,8,2,12,0.00
2013-2-7,61,51,39,54,48,38,97,91,72,30.28,29.80,17,6,29,1.11
2013-2-8,62,54,47,56,48,39,98,81,60,30.03,29.58,16,4,24,0.40
2013-2-9,58,44,31,39,30,25,91,61,30,30.39,30.03,11,2,20,0.00
2013-2-10,56,44,28,52,38,24,93,81,60,30.49,30.27,9,2,15,0.00
2013-2-11,66,62,53,62,59,50,94,89,83,30.33,29.97,17,6,24,0.11
2013-2-12,66,58,51,59,52,41,96,83,42,30.10,29.94,8,2,13,0.23
2013-2-13,62,53,47,59,51,45,98,93,80,30.01,29.67,12,3,22,0.42
2013-2-14,53,47,38,48,41,36,95,80,59,30.11,29.83,6,1,12,0.00
2013-2-15,59,45,33,44,38,32,98,78,41,30.11,29.98,9,1,13,0.01
2013-2-16,54,41,34,43,37,33,98,88,65,29.98,29.74,10,2,22,0.24
2013-2-17,43,35,29,33,21,11,94,59,30,30.31,29.91,13,4,27,0.01
2013-2-18,49,36,21,29,24,16,94,65,32,30.46,30.31,10,2,14,0.00
2013-2-19,64,50,31,55,46,29,98,85,68,30.32,29.95,16,3,31,0.00
2013-2-20,60,48,35,45,32,18,95,61,21,30.14,29.99,9,2,13,0.00
2013-2-21,62,44,30,39,30,23,93,65,25,30.25,30.10,7,1,12,0.00
2013-2-22,52,46,40,50,39,28,97,79,61,30.33,30.07,13,4,18,0.20
2013-2-23,53,47,44,52,46,43,98,97,96,30.07,29.84,6,1,10,0.32
2013-2-24,67,52,42,52,47,40,98,84,48,30.02,29.78,8,2,14,0.02
2013-2-25,46,42,38,40,35,32,96,77,60,30.20,30.02,12,3,18,0.00
2013-2-26,68,57,42,66,54,35,98,92,75,30.10,29.62,15,6,24,0.39
2013-2-27,63,54,48,58,45,41,93,74,50,29.84,29.65,13,4,23,0.01
2013-2-28,60,49,36,45,38,33,91,69,42,29.87,29.73,13,3,20,0.01
2013-3-1,57,45,35,35,32,30,89,64,38,29.92,29.82,9,2,14,0.00
2013-3-2,54,41,30,34,31,28,96,72,41,29.92,29.81,7,1,13,0.15
2013-3-3,51,40,32,34,26,24,89,60,36,29.98,29.85,10,2,18,0.00
2013-3-4,54,39,28,26,22,18,78,54,26,30.14,29.98,12,2,21,0.00
2013-3-5,66,52,32,56,38,25,89,61,34,30.14,29.65,16,4,24,0.09
2013-3-6,61,50,42,56,36,25,89,59,38,29.99,29.55,18,7,39,0.36
2013-3-7,59,46,35,35,32,29,80,60,38,30.21,29.98,13,3,20,0.00
2013-3-8,58,45,31,32,29,26,86,58,31,30.26,30.11,12,2,20,0.00
2013-3-9,65,48,34,42,34,29,92,62,35,30.31,30.23,9,2,15,0.00
2013-3-10,62,48,32,45,33,11,97,64,16,30.33,30.25,10,2,16,0.00
2013-3-11,70,57,42,57,51,41,98,83,58,30.28,29.98,12,2,18,0.00
2013-3-12,70,63,55,64,60,54,98,91,74,29.98,29.79,13,3,20,0.50
2013-3-13,64,54,43,54,37,28,96,57,27,30.08,29.90,10,3,17,0.00
2013-3-14,56,44,34,30,25,20,73,48,28,30.25,30.08,12,3,21,0.00
2013-3-15,62,48,29,43,31,21,93,58,24,30.22,30.01,11,2,17,0.00
2013-3-16,79,65,54,52,48,43,70,57,34,30.01,29.77,16,6,25,0.00
2013-3-17,75,59,50,54,50,46,88,72,45,30.13,29.88,16,5,26,0.00
2013-3-18,63,53,47,54,49,43,96,85,69,30.15,29.89,10,2,16,0.00
2013-3-19,72,59,47,56,50,38,98,75,34,29.99,29.76,10,2,17,0.34
2013-3-20,60,49,38,40,28,16,87,47,19,30.13,29.83,9,2,15,0.00
2013-3-21,55,44,32,34,27,14,94,57,21,29.98,29.72,12,3,22,0.00
2013-3-22,54,40,28,33,22,15,72,49,26,30.12,29.98,8,2,16,0.00
2013-3-23,58,45,33,42,37,30,95,75,43,30.08,29.92,5,0,8,0.03
2013-3-24,58,48,41,57,47,38,97,94,83,29.94,29.42,20,4,29,0.78
2013-3-25,54,47,42,43,36,28,96,69,40,29.86,29.54,14,5,26,0.00
2013-3-26,54,44,34,33,29,26,80,58,38,30.12,29.86,12,3,18,0.00
2013-3-27,58,46,35,33,28,24,80,53,28,30.23,30.12,12,2,20,0.00
2013-3-28,60,45,30,34,28,25,83,55,29,30.28,30.16,12,2,21,0.00
2013-3-29,62,48,30,41,32,26,90,58,28,30.35,30.21,10,1,17,0.00
2013-3-30,62,53,47,49,44,40,93,73,46,30.28,30.15,7,1,12,0.05
2013-3-31,72,61,48,58,54,44,96,78,57,30.15,29.88,15,4,23,0.01
2013-4-1,75,64,54,62,57,52,96,82,51,29.92,29.83,10,3,18,0.01
2013-4-2,61,53,43,53,41,32,97,65,37,30.15,29.92,10,2,15,0.00
2013-4-3,59,51,43,46,39,30,95,68,35,30.29,30.12,12,2,17,0.01
2013-4-4,59,51,47,58,47,39,98,87,69,30.30,29.79,15,6,24,0.87
2013-4-5,59,49,43,58,46,42,98,90,71,30.05,29.80,10,2,16,0.00
2013-4-6,64,50,37,49,42,36,98,76,42,30.30,30.04,13,3,20,0.01
2013-4-7,68,55,36,58,48,34,97,80,64,30.29,30.17,9,2,16,0.00
2013-4-8,78,65,49,62,57,48,98,78,53,30.22,30.13,12,2,20,0.00
2013-4-9,82,69,55,66,61,54,98,77,49,30.24,30.12,8,2,14,0.00
2013-4-10,82,71,62,65,62,59,96,75,49,30.17,30.02,13,4,18,0.00
2013-4-11,82,72,63,70,66,61,96,82,58,30.04,29.85,13,4,20,0.00
2013-4-12,80,71,67,73,68,64,98,91,77,29.88,29.69,14,5,24,1.62
2013-4-13,70,62,50,67,55,48,95,78,49,30.02,29.75,9,2,16,0.01
2013-4-14,75,62,46,60,52,45,99,74,45,30.12,30.02,7,1,10,0.00
2013-4-15,70,65,59,62,60,56,95,85,73,30.16,29.92,15,3,25,0.53
2013-4-16,76,66,57,66,60,56,98,85,68,30.26,30.15,9,2,13,0.00
2013-4-17,79,67,54,66,60,53,98,82,59,30.25,30.12,7,1,10,0.00
2013-4-18,76,67,56,67,63,55,99,86,66,30.18,30.05,12,3,18,0.02
2013-4-19,80,72,67,73,69,66,97,88,75,30.07,29.85,16,5,26,0.66
2013-4-20,67,58,46,66,52,43,98,82,58,30.24,29.84,7,2,14,0.40
2013-4-21,63,53,41,50,44,38,98,73,54,30.45,30.24,18,6,29,0.00
2013-4-22,62,52,44,52,46,38,93,81,67,30.41,30.17,12,3,21,0.01
2013-4-23,70,57,51,55,52,49,95,83,56,30.21,30.11,9,2,20,0.01
2013-4-24,76,62,46,63,56,45,98,81,58,30.20,30.03,13,3,21,0.00
2013-4-25,75,65,54,64,59,50,92,83,66,30.25,30.05,14,3,18,0.03
2013-4-26,70,58,44,53,48,38,97,71,38,30.40,30.24,11,2,15,0.01
2013-4-27,71,61,51,53,48,38,94,65,31,30.39,30.29,13,3,18,0.00
2013-4-28,72,65,60,60,54,50,82,68,49,30.29,30.11,10,4,17,0.00
2013-4-29,72,65,62,65,62,59,98,89,76,30.12,29.96,16,1,20,1.01
2013-4-30,72,65,60,65,62,59,99,89,73,30.08,29.98,9,2,15,0.01
2013-5-1,74,64,58,64,60,56,97,89,66,30.20,30.07,10,3,18,0.07
2013-5-2,70,64,58,64,60,55,97,89,76,30.25,30.15,15,5,23,0.03
2013-5-3,66,60,54,60,54,46,95,82,64,30.16,30.09,18,6,26,0.03
2013-5-4,68,59,51,58,54,48,93,83,67,30.10,29.98,16,6,25,0.00
2013-5-5,69,62,54,63,58,52,94,88,78,30.00,29.90,19,6,27,0.05
2013-5-6,76,68,57,66,61,54,95,81,59,29.93,29.82,11,4,17,0.24
2013-5-7,72,62,52,56,53,48,98,74,45,29.94,29.86,11,2,17,0.00
2013-5-8,78,66,52,61,56,51,99,72,44,30.01,29.92,12,3,22,0.00
2013-5-9,85,73,61,65,61,57,94,67,39,30.05,29.94,8,2,14,0.00
2013-5-10,85,74,63,69,64,60,92,71,48,30.08,29.97,11,3,18,0.00
2013-5-11,83,76,71,72,67,60,89,74,47,30.04,29.82,12,4,22,0.00
2013-5-12,82,74,63,67,61,50,89,66,35,29.98,29.78,10,2,16,0.00
2013-5-13,73,62,50,52,44,37,74,52,29,30.14,29.98,10,2,20,0.00
2013-5-14,72,59,42,49,42,36,91,58,30,30.26,30.14,9,1,15,0.00
2013-5-15,83,71,52,63,57,49,97,65,46,30.16,29.97,12,4,22,0.00
2013-5-16,92,77,67,67,64,60,81,64,36,30.01,29.92,10,4,18,0.00
2013-5-17,90,78,68,70,65,60,87,66,36,30.11,30.00,9,3,14,0.00
2013-5-18,83,75,66,72,67,62,95,78,61,30.17,30.10,10,2,14,0.00
2013-5-19,82,74,66,71,68,64,97,84,66,30.17,30.09,11,2,17,0.00
2013-5-20,79,73,69,71,69,67,97,88,72,30.16,30.03,11,2,20,0.29
2013-5-21,82,74,69,73,70,67,97,85,67,30.09,29.97,9,2,14,0.00
2013-5-22,82,75,67,73,70,66,98,85,68,30.05,29.97,12,3,21,0.16
2013-5-23,81,75,69,73,70,68,98,86,70,30.00,29.84,11,2,20,0.24
2013-5-24,81,72,56,71,60,43,95,68,35,30.16,29.77,12,2,24,0.00
2013-5-25,78,62,46,51,44,40,85,55,28,30.29,30.13,7,1,15,0.00
2013-5-26,75,63,53,56,53,50,96,73,45,30.26,30.16,5,0,8,0.00
2013-5-27,78,66,49,62,54,47,98,70,43,30.28,30.20,8,1,12,0.00
2013-5-28,81,71,57,67,63,56,98,78,59,30.28,30.20,9,2,15,0.00
2013-5-29,82,74,62,71,65,61,98,77,53,30.28,30.20,9,2,16,0.00
2013-5-30,83,74,61,74,69,60,98,83,68,30.28,30.21,10,2,15,0.00
2013-5-31,84,76,65,74,70,64,98,83,67,30.24,30.15,8,1,13,0.00
2013-6-1,84,75,65,73,69,64,99,81,57,30.18,30.09,10,2,17,0.00
2013-6-2,85,76,66,73,70,65,98,81,64,30.12,29.97,11,3,17,0.00
2013-6-3,84,74,68,76,71,66,98,92,78,29.99,29.85,9,2,15,1.04
2013-6-4,81,74,68,74,70,67,99,89,73,30.09,29.92,8,2,13,0.00
2013-6-5,80,75,70,70,68,65,91,81,61,30.11,30.02,12,5,18,0.00
2013-6-6,80,76,73,75,72,70,96,89,80,30.05,29.85,10,3,17,0.27
2013-6-7,81,77,73,76,73,71,98,88,77,29.86,29.58,19,7,35,1.45
2013-6-8,89,81,76,76,74,73,96,80,62,30.11,29.86,11,4,20,0.08
2013-6-9,86,79,73,78,75,72,97,89,73,30.17,30.09,9,2,16,0.45
2013-6-10,86,78,70,77,73,68,97,86,67,30.15,29.98,13,4,24,0.04
2013-6-11,88,79,73,75,73,70,94,83,62,30.01,29.89,10,4,16,0.01
2013-6-12,94,83,70,77,72,68,98,74,43,29.99,29.88,8,2,13,0.01
2013-6-13,96,86,75,80,77,68,93,74,50,29.89,29.65,14,5,26,0.00
2013-6-14,84,75,64,70,64,59,97,72,46,30.02,29.70,8,2,16,0.35
2013-6-15,85,74,58,66,58,53,98,63,34,30.13,30.02,8,1,15,0.00
2013-6-16,86,77,65,68,65,62,94,68,47,30.17,30.06,10,3,16,0.00
2013-6-17,88,78,67,73,70,64,95,77,57,30.09,29.98,9,2,15,0.00
2013-6-18,89,80,72,78,73,69,96,82,61,30.02,29.82,14,3,27,0.04
2013-6-19,78,74,71,76,71,67,98,92,84,30.09,29.86,10,2,14,0.82
2013-6-20,82,73,64,70,65,59,95,76,48,30.20,30.08,12,3,20,0.00
2013-6-21,84,73,62,74,68,58,96,84,68,30.20,30.14,13,3,17,0.03
2013-6-22,82,76,70,76,73,69,98,91,75,30.17,30.10,12,3,18,0.74
2013-6-23,84,77,71,77,74,70,98,90,75,30.23,30.16,8,1,15,0.30
2013-6-24,84,76,73,78,74,71,98,92,76,30.24,30.09,7,1,13,0.66
2013-6-25,90,79,74,79,74,69,98,84,59,30.17,30.04,9,2,17,0.02
2013-6-26,90,80,70,77,74,68,95,81,58,30.06,29.95,12,3,20,0.32
2013-6-27,88,78,69,80,74,68,98,88,71,29.99,29.76,16,4,26,1.24
2013-6-28,90,82,73,79,77,72,99,85,69,29.82,29.64,13,4,21,0.03
2013-6-29,84,79,74,77,74,71,95,85,74,29.80,29.65,14,5,24,0.03
2013-6-30,84,77,72,77,75,70,99,92,72,29.91,29.76,14,3,24,1.29
2013-7-1,79,76,73,76,74,72,98,94,87,30.08,29.88,12,4,21,0.63
2013-7-2,85,80,73,79,75,71,96,88,79,30.21,30.07,11,3,21,0.01
2013-7-3,86,81,76,79,76,74,96,87,76,30.27,30.18,12,3,23,0.01
2013-7-4,86,81,76,77,75,74,92,83,70,30.28,30.22,9,3,15,0.00
2013-7-5,86,80,75,79,76,72,97,86,74,30.29,30.20,11,2,16,0.03
2013-7-6,86,79,71,77,73,70,98,83,67,30.27,30.16,10,2,14,0.00
2013-7-7,87,79,70,76,72,68,99,80,60,30.22,30.10,9,2,15,0.00
2013-7-8,88,80,70,76,73,69,98,81,59,30.20,30.12,9,2,14,0.00
2013-7-9,90,81,73,77,74,72,96,80,58,30.20,30.11,10,2,14,0.01
2013-7-10,89,81,73,78,74,71,94,80,58,30.15,30.00,10,2,18,0.07
2013-7-11,88,81,75,78,75,73,93,83,66,30.02,29.90,11,2,17,0.10
2013-7-12,80,74,71,74,72,69,99,96,83,30.00,29.89,12,1,17,2.49
2013-7-13,83,77,71,78,74,70,99,91,81,30.17,29.98,14,3,23,0.52
2013-7-14,86,81,77,78,76,73,94,84,74,30.27,30.17,11,3,16,0.00
2013-7-15,87,81,74,77,75,73,97,84,67,30.28,30.24,10,2,14,0.00
2013-7-16,94,82,71,78,74,70,98,78,52,30.28,30.17,6,0,12,0.00
2013-7-17,92,82,75,80,75,72,94,80,63,30.21,30.11,7,1,13,0.00
2013-7-18,92,82,71,77,74,68,98,78,50,30.15,30.07,7,1,13,0.00
2013-7-19,90,82,74,78,75,72,95,79,59,30.14,30.03,11,2,20,0.04
2013-7-20,90,82,76,78,74,72,91,78,59,30.08,29.98,13,4,23,0.03
2013-7-21,86,80,74,78,74,70,93,83,72,30.04,29.94,9,3,15,0.01
2013-7-22,91,82,75,78,76,73,95,81,60,29.98,29.87,9,3,16,0.00
2013-7-23,90,82,76,77,75,73,90,81,63,29.91,29.75,10,4,16,0.00
2013-7-24,92,81,75,79,75,72,95,82,59,29.82,29.75,9,2,14,0.11
2013-7-25,90,80,72,76,73,70,97,81,60,30.00,29.77,7,1,12,0.00
2013-7-26,83,76,68,73,70,67,97,82,66,30.08,30.00,8,2,13,0.00
2013-7-27,85,78,68,76,72,66,98,85,71,30.06,29.95,9,2,13,0.00
2013-7-28,89,80,73,78,75,69,98,84,59,30.04,29.90,8,2,14,0.00
2013-7-29,91,78,71,78,74,69,98,90,60,30.16,30.02,15,1,23,1.52
2013-7-30,88,76,70,77,73,70,99,89,68,30.20,30.11,7,1,12,0.71
2013-7-31,84,78,71,77,74,71,99,89,73,30.15,30.03,8,1,12,0.01
2013-8-1,84,76,71,76,74,71,98,92,74,30.03,29.90,9,1,15,1.00
2013-8-2,88,81,74,81,76,73,98,85,67,30.04,29.93,8,2,13,0.11
2013-8-3,91,82,76,79,76,73,98,83,58,30.05,29.92,8,2,17,0.00
2013-8-4,94,80,68,80,74,66,97,82,57,30.03,29.87,9,1,17,0.32
2013-8-5,83,75,63,70,64,60,98,73,48,30.08,30.00,8,1,13,0.00
2013-8-6,84,75,65,71,66,61,96,75,57,30.08,30.00,8,1,13,0.00
2013-8-7,85,77,66,74,71,65,98,83,65,30.09,30.03,8,1,14,0.00
2013-8-8,89,80,72,79,75,71,98,85,64,30.07,30.01,7,0,12,0.00
2013-8-9,91,83,76,79,76,74,97,81,61,30.10,30.03,11,3,17,0.02
2013-8-10,94,85,77,79,77,74,96,79,57,30.11,30.03,12,3,17,0.00
2013-8-11,96,83,75,80,77,73,96,83,53,30.12,30.02,10,2,17,0.89
2013-8-12,98,84,75,80,76,72,95,79,50,30.07,29.93,15,2,20,0.21
2013-8-13,93,85,75,81,78,74,98,81,63,29.97,29.79,11,4,18,0.00
2013-8-14,83,74,68,78,72,64,99,91,76,30.05,29.81,9,1,17,1.00
2013-8-15,71,66,63,67,64,62,98,93,85,30.11,30.03,9,1,13,0.63
2013-8-16,75,70,65,71,68,63,98,94,86,30.12,30.04,7,1,12,0.10
2013-8-17,82,73,68,77,72,66,99,95,83,30.14,30.04,10,2,13,1.27
2013-8-18,92,78,70,78,74,70,99,88,57,30.20,30.12,7,1,9,0.00
2013-8-19,84,77,73,78,75,72,99,93,79,30.17,30.07,7,1,12,0.24
2013-8-20,85,76,71,79,74,71,99,94,80,30.18,30.08,8,1,12,0.23
2013-8-21,88,80,71,80,75,71,99,87,70,30.22,30.11,8,1,12,0.01
2013-8-22,90,77,71,78,73,69,98,90,66,30.15,30.01,6,0,13,0.33
2013-8-23,93,81,72,78,74,70,99,82,55,30.04,29.92,6,1,13,0.01
2013-8-24,83,75,69,71,68,65,96,80,58,30.24,30.00,11,2,15,0.01
2013-8-25,82,72,63,68,65,61,94,78,56,30.32,30.24,12,2,16,0.00
2013-8-26,86,72,60,69,64,59,96,78,47,30.28,30.13,6,1,9,0.00
2013-8-27,87,75,63,70,65,62,98,74,46,30.14,29.98,9,2,14,0.00
2013-8-28,92,81,73,76,72,65,84,73,55,30.03,29.91,8,1,12,0.00
2013-8-29,92,81,73,79,74,70,94,80,64,29.97,29.85,10,2,14,0.07
2013-8-30,83,75,68,74,71,67,97,87,66,30.03,29.96,7,1,12,0.01
2013-8-31,87,78,68,77,73,67,99,86,68,29.98,29.90,9,1,14,0.00
2013-9-1,92,82,75,78,76,73,98,83,55,29.95,29.84,9,2,17,0.00
2013-9-2,92,84,79,81,77,75,92,82,64,29.91,29.81,10,3,16,0.02
2013-9-3,89,80,71,78,74,68,92,83,67,29.95,29.82,11,2,16,0.01
2013-9-4,86,78,69,76,72,68,98,84,62,30.07,29.94,8,1,10,0.00
2013-9-5,88,79,72,79,75,71,99,88,70,30.08,30.00,5,0,10,0.00
2013-9-6,88,76,65,75,70,64,97,83,54,30.09,30.02,9,2,12,0.02
2013-9-7,86,73,63,68,64,58,95,74,43,30.09,29.98,9,2,13,0.00
2013-9-8,89,75,61,73,68,60,99,81,54,30.00,29.89,7,0,12,0.00
2013-9-9,87,77,68,75,71,67,98,83,64,30.16,29.99,9,1,13,0.00
2013-9-10,88,77,67,75,71,66,98,81,57,30.22,30.15,10,2,15,0.00
2013-9-11,86,75,67,75,70,66,98,84,56,30.21,30.09,6,0,10,0.00
2013-9-12,91,78,66,75,70,65,99,79,49,30.10,29.84,8,1,14,0.00
2013-9-13,90,79,71,76,71,65,88,77,52,29.84,29.73,8,1,12,0.00
2013-9-14,82,73,66,67,65,60,92,77,60,30.11,29.80,9,2,13,0.00
2013-9-15,81,73,63,72,67,62,96,83,68,30.21,30.10,10,2,15,0.00
2013-9-16,90,76,67,77,71,66,98,87,58,30.15,30.02,9,0,13,0.10
2013-9-17,79,70,60,67,62,55,93,77,54,30.25,30.12,12,3,19,0.01
2013-9-18,79,66,55,65,59,52,90,79,56,30.25,30.14,8,1,10,0.00
2013-9-19,80,67,56,61,58,54,97,74,44,30.18,30.08,9,1,13,0.00
2013-9-20,74,68,59,67,62,57,97,84,65,30.10,29.97,3,0,7,0.00
2013-9-21,81,72,67,74,69,65,98,91,76,29.97,29.75,7,1,12,0.33
2013-9-22,77,72,67,73,69,64,97,91,81,29.86,29.66,10,2,16,0.48
2013-9-23,77,67,56,64,58,54,95,76,48,30.07,29.86,10,2,14,0.00
2013-9-24,74,64,52,60,56,51,98,79,54,30.10,29.95,8,1,12,0.00
2013-9-25,74,65,54,64,59,53,98,83,67,29.97,29.85,10,2,14,0.00
2013-9-26,80,69,62,65,62,59,94,78,55,29.98,29.84,8,1,13,0.03
2013-9-27,78,66,58,64,59,55,95,78,52,30.13,29.97,13,2,20,0.00
2013-9-28,78,68,61,63,60,57,90,76,54,30.16,30.09,11,2,16,0.00
2013-9-29,79,66,57,64,60,56,97,83,54,30.12,29.99,7,1,13,0.00
2013-9-30,80,66,56,60,56,52,98,74,40,30.07,29.98,10,1,15,0.00
2013-10-1,80,65,52,61,57,50,98,77,47,30.13,30.03,8,0,12,0.00
2013-10-2,87,70,56,66,61,55,99,76,45,30.13,30.05,7,1,10,0.00
2013-10-3,85,72,59,71,65,58,99,83,53,30.15,30.09,8,1,13,0.00
2013-10-4,85,73,63,72,67,62,99,83,56,30.14,30.07,6,0,10,0.00
2013-10-5,86,73,62,72,67,61,99,83,48,30.13,30.06,7,1,12,0.00
2013-10-6,83,73,65,74,70,64,99,91,75,30.08,29.96,9,1,13,0.02
2013-10-7,83,77,72,75,73,71,98,88,73,29.97,29.85,11,2,18,0.20
2013-10-8,72,64,58,72,62,57,98,96,92,30.09,29.87,10,3,17,0.89
2013-10-9,63,60,58,61,59,57,98,94,90,30.06,29.96,10,4,20,0.03
2013-10-10,60,60,58,60,58,57,97,95,92,29.97,29.92,9,3,20,0.12
2013-10-11,72,65,60,65,62,60,98,91,78,29.96,29.89,6,1,10,0.00
2013-10-12,69,65,62,64,63,61,97,93,84,30.05,29.94,5,1,10,0.00
2013-10-13,76,69,66,69,67,64,98,92,78,30.10,30.00,6,1,12,0.01
2013-10-14,76,70,64,69,66,61,97,88,78,30.13,30.06,11,2,18,0.00
2013-10-15,72,65,61,65,62,59,96,90,78,30.12,29.98,7,1,15,0.00
2013-10-16,75,68,63,68,65,61,97,90,77,30.01,29.92,4,0,9,0.00
2013-10-17,81,69,58,68,64,57,99,86,60,29.99,29.86,8,1,13,0.00
2013-10-18,77,70,66,70,68,65,98,91,76,30.00,29.90,8,1,12,0.06
2013-10-19,76,70,66,73,69,65,99,96,87,29.96,29.81,5,0,8,0.16
2013-10-20,70,65,58,65,58,52,93,78,55,30.06,29.89,10,2,14,0.00
2013-10-21,66,62,60,58,57,55,89,84,72,30.05,30.02,1,0,4,0.01
2013-10-22,69,62,56,62,58,53,96,86,72,30.02,29.85,1,0,4,0.02
2013-10-23,73,62,53,61,54,40,98,77,42,29.99,29.69,11,2,21,0.17
2013-10-24,64,51,40,44,40,36,94,67,38,30.18,29.99,7,1,12,0.00
2013-10-25,61,49,38,44,38,33,97,70,39,30.36,30.16,7,1,17,0.00
2013-10-26,66,48,33,45,38,32,95,74,37,30.36,30.13,7,0,12,0.00
2013-10-27,69,54,40,51,44,39,96,75,43,30.16,30.08,5,0,9,0.00
2013-10-28,72,58,46,60,52,44,99,83,56,30.27,30.15,4,0,8,0.00
2013-10-29,74,61,50,62,56,49,98,84,63,30.33,30.24,7,1,9,0.00
2013-10-30,78,62,50,64,57,50,99,84,53,30.32,30.20,6,0,8,0.00
2013-10-31,80,66,53,69,62,52,99,87,57,30.23,30.01,11,1,18,0.00
2013-11-1,79,74,68,72,69,66,97,85,75,30.01,29.73,13,5,28,0.10
2013-11-2,76,65,57,70,62,51,98,90,71,29.91,29.67,10,1,18,0.83
2013-11-3,66,54,42,52,45,40,93,74,42,30.34,29.91,8,1,13,0.00
2013-11-4,62,49,39,46,40,37,96,75,48,30.49,30.34,12,2,18,0.00
2013-11-5,73,58,42,61,52,39,93,81,63,30.47,30.37,15,3,23,0.00
2013-11-6,74,63,54,66,59,51,98,88,75,30.37,30.10,13,3,18,0.07
2013-11-7,74,66,55,67,63,48,99,91,73,30.10,29.90,7,1,21,0.23
2013-11-8,60,49,38,48,37,32,94,66,36,30.33,30.01,10,2,15,0.00
2013-11-9,63,49,34,50,43,33,95,80,53,30.38,30.23,6,1,9,0.00
2013-11-10,59,51,47,51,48,45,96,92,74,30.25,30.21,2,0,5,0.00
2013-11-11,51,44,40,45,42,39,95,91,80,30.22,30.18,0,0,0,0.00
2013-11-12,70,51,36,50,40,26,98,68,38,30.38,30.02,11,2,23,0.00
2013-11-13,48,36,26,31,25,20,91,66,35,30.52,30.35,10,2,18,0.02
2013-11-14,61,41,24,35,28,21,97,67,23,30.53,30.38,6,0,8,0.00
2013-11-15,67,53,35,60,48,33,95,85,57,30.39,30.22,8,1,12,0.00
2013-11-16,75,64,58,66,60,56,98,87,64,30.25,30.17,9,1,12,0.00
2013-11-17,77,64,54,68,62,53,99,92,69,30.21,29.96,8,1,14,0.13
2013-11-18,83,72,59,71,67,49,97,86,65,29.97,29.75,12,3,21,0.00
2013-11-19,62,52,42,49,36,32,82,57,34,30.28,29.91,14,2,20,0.00
2013-11-20,60,48,39,48,41,35,91,78,60,30.40,30.24,12,1,16,0.00
2013-11-21,69,57,45,60,53,43,97,87,72,30.43,30.36,10,2,13,0.00
2013-11-22,75,63,54,65,60,53,98,88,68,30.38,30.11,6,1,9,0.00
2013-11-23,66,61,51,63,58,41,96,90,68,30.11,29.99,7,1,12,0.07
2013-11-24,50,39,24,41,20,10,74,48,26,30.57,30.10,12,3,21,0.00
2013-11-25,45,33,22,31,20,10,86,61,30,30.60,30.35,8,1,12,0.00
2013-11-26,71,56,35,70,54,31,98,93,77,30.35,29.65,14,3,30,0.79
2013-11-27,71,55,34,68,52,26,98,91,71,30.18,29.47,16,4,28,0.69
2013-11-28,48,35,28,31,26,22,94,71,39,30.51,30.18,7,1,14,0.00
2013-11-29,55,40,28,35,30,26,96,73,37,30.60,30.50,7,1,13,0.00
2013-11-30,59,45,32,46,38,28,90,77,59,30.59,30.33,5,1,12,0.00
2013-12-1,56,50,43,51,46,41,97,88,79,30.34,30.03,3,0,6,0.00
2013-12-2,58,50,41,49,47,39,98,90,71,30.02,29.83,5,0,8,0.00
2013-12-3,63,50,36,53,45,35,98,84,52,30.04,29.90,6,0,8,0.00
2013-12-4,72,60,54,66,58,53,99,93,74,30.13,30.02,6,0,9,0.22
2013-12-5,77,64,52,68,60,51,99,87,63,30.19,30.09,8,1,12,0.01
2013-12-6,78,72,68,71,68,67,96,89,74,30.15,30.03,13,5,21,0.00
2013-12-7,72,57,42,69,55,40,96,92,77,30.41,30.05,12,3,20,0.17
2013-12-8,44,42,40,42,40,39,97,95,92,30.40,30.28,8,2,13,0.02
2013-12-9,75,56,42,68,54,41,99,94,76,30.28,30.05,8,1,14,0.01
2013-12-10,72,58,38,67,56,35,99,92,83,30.34,29.86,12,3,26,0.09
2013-12-11,55,39,27,35,30,25,97,74,33,30.49,30.31,7,0,10,0.01
2013-12-12,51,38,27,33,29,24,95,72,37,30.41,30.28,10,1,18,0.00
2013-12-13,54,38,24,36,28,21,97,73,30,30.45,30.32,6,0,10,0.00
2013-12-14,68,56,36,67,52,33,97,87,79,30.33,29.78,15,3,28,0.62
2013-12-15,66,54,38,65,51,36,97,89,74,30.10,29.72,10,2,18,0.06
2013-12-16,61,44,32,45,37,30,96,79,41,30.22,30.10,6,0,8,0.00
2013-12-17,66,53,39,46,42,36,98,67,42,30.21,30.01,10,4,20,0.00
2013-12-18,56,45,31,40,32,26,91,63,33,30.34,30.02,8,1,17,0.00
2013-12-19,64,44,28,42,33,26,97,71,28,30.39,30.29,6,0,10,0.00
2013-12-20,75,56,40,63,52,38,97,87,57,30.30,30.17,8,0,12,0.00
2013-12-21,76,63,51,68,60,50,99,91,75,30.21,30.08,10,1,15,0.01
2013-12-22,80,72,66,72,68,65,98,88,75,30.15,30.08,13,4,20,0.00
2013-12-23,74,70,58,70,68,57,97,92,86,30.12,30.01,12,5,22,0.27
2013-12-24,58,47,34,57,43,30,97,85,58,30.43,30.03,8,2,16,0.19
2013-12-25,48,38,28,33,27,20,85,67,50,30.53,30.38,9,2,12,0.00
2013-12-26,46,41,37,43,37,32,93,87,79,30.37,30.25,6,0,10,0.00
2013-12-27,56,42,32,37,34,30,94,75,40,30.44,30.34,9,1,14,0.00
2013-12-28,64,46,27,49,37,26,97,75,38,30.42,30.15,6,1,10,0.00
2013-12-29,69,63,51,67,60,49,96,90,82,30.14,29.75,20,4,33,0.19
2013-12-30,62,50,41,50,46,41,99,85,58,30.15,29.95,5,0,8,0.01
2013-12-31,57,47,37,46,40,33,96,79,41,30.39,30.12,8,1,12,0.00
2014-1-1,53,43,34,44,38,32,97,84,57,30.44,30.17,7,1,10,0.03
2014-1-2,59,50,45,58,50,44,99,97,93,30.17,29.58,12,1,21,0.67